sensor_id;sensor_type;location;lat;lon;timestamp;pressure;altitude;pressure_sealevel;temperature;humidity
53635;BME280;39542;-34.932;138.594;2023-07-31T00:00:28;101962.68;;;15.73;69.06
53635;BME280;39542;-34.932;138.594;2023-07-31T00:01:02;101961.51;;;15.71;69.06
53635;BME280;39542;-34.932;138.594;2023-07-31T00:01:36;101959.88;;;15.72;69.09
53635;BME280;39542;-34.932;138.594;2023-07-31T00:02:10;101957.89;;;15.72;69.07
53635;BME280;39542;-34.932;138.594;2023-07-31T00:02:45;101959.09;;;15.73;69.01
53635;BME280;39542;-34.932;138.594;2023-07-31T00:03:19;101961.35;;;15.73;69.01
53635;BME280;39542;-34.932;138.594;2023-07-31T00:03:53;101958.21;;;15.74;69.01
53635;BME280;39542;-34.932;138.594;2023-07-31T00:04:27;101958.06;;;15.74;69.01
53635;BME280;39542;-34.932;138.594;2023-07-31T00:05:02;101956.55;;;15.73;69.08
53635;BME280;39542;-34.932;138.594;2023-07-31T00:05:36;101957.52;;;15.73;69.00
53635;BME280;39542;-34.932;138.594;2023-07-31T00:06:11;101959.52;;;15.73;69.04
53635;BME280;39542;-34.932;138.594;2023-07-31T00:06:45;101959.67;;;15.74;69.03
53635;BME280;39542;-34.932;138.594;2023-07-31T00:07:19;101958.61;;;15.74;69.03
53635;BME280;39542;-34.932;138.594;2023-07-31T00:07:53;101962.25;;;15.73;69.06
53635;BME280;39542;-34.932;138.594;2023-07-31T00:08:28;101961.08;;;15.74;69.04
53635;BME280;39542;-34.932;138.594;2023-07-31T00:09:03;101961.65;;;15.74;69.06
53635;BME280;39542;-34.932;138.594;2023-07-31T00:09:38;101962.74;;;15.76;68.98
53635;BME280;39542;-34.932;138.594;2023-07-31T00:10:13;101961.84;;;15.78;68.96
53635;BME280;39542;-34.932;138.594;2023-07-31T00:10:50;101966.27;;;15.78;68.95
53635;BME280;39542;-34.932;138.594;2023-07-31T00:11:25;101965.22;;;15.77;68.97
53635;BME280;39542;-34.932;138.594;2023-07-31T00:11:59;101967.52;;;15.76;68.99
53635;BME280;39542;-34.932;138.594;2023-07-31T00:12:33;101970.12;;;15.78;68.97
53635;BME280;39542;-34.932;138.594;2023-07-31T00:13:08;101970.55;;;15.77;68.99
53635;BME280;39542;-34.932;138.594;2023-07-31T00:13:42;101970.58;;;15.77;69.00
53635;BME280;39542;-34.932;138.594;2023-07-31T00:14:16;101975.61;;;15.76;69.00
53635;BME280;39542;-34.932;138.594;2023-07-31T00:14:50;101973.45;;;15.77;68.99
53635;BME280;39542;-34.932;138.594;2023-07-31T00:15:25;101975.83;;;15.77;69.01
53635;BME280;39542;-34.932;138.594;2023-07-31T00:15:59;101975.75;;;15.77;68.99
53635;BME280;39542;-34.932;138.594;2023-07-31T00:16:34;101979.15;;;15.78;69.01
53635;BME280;39542;-34.932;138.594;2023-07-31T00:17:08;101976.71;;;15.77;68.99
53635;BME280;39542;-34.932;138.594;2023-07-31T00:17:42;101978.15;;;15.77;69.03
53635;BME280;39542;-34.932;138.594;2023-07-31T00:18:17;101978.26;;;15.77;69.04
53635;BME280;39542;-34.932;138.594;2023-07-31T00:18:51;101976.42;;;15.76;68.99
53635;BME280;39542;-34.932;138.594;2023-07-31T00:19:26;101977.53;;;15.77;69.02
53635;BME280;39542;-34.932;138.594;2023-07-31T00:20:00;101978.19;;;15.78;68.95
53635;BME280;39542;-34.932;138.594;2023-07-31T00:20:35;101977.55;;;15.77;69.03
53635;BME280;39542;-34.932;138.594;2023-07-31T00:21:09;101977.65;;;15.77;69.00
53635;BME280;39542;-34.932;138.594;2023-07-31T00:21:44;101977.54;;;15.78;69.00
53635;BME280;39542;-34.932;138.594;2023-07-31T00:22:18;101978.16;;;15.78;69.01
53635;BME280;39542;-34.932;138.594;2023-07-31T00:22:53;101978.63;;;15.79;68.98
53635;BME280;39542;-34.932;138.594;2023-07-31T00:23:27;101977.38;;;15.77;69.05
53635;BME280;39542;-34.932;138.594;2023-07-31T00:24:01;101980.23;;;15.78;69.02
53635;BME280;39542;-34.932;138.594;2023-07-31T00:24:36;101980.56;;;15.78;69.03
53635;BME280;39542;-34.932;138.594;2023-07-31T00:25:10;101979.99;;;15.77;69.08
53635;BME280;39542;-34.932;138.594;2023-07-31T00:25:44;101981.03;;;15.78;69.05
53635;BME280;39542;-34.932;138.594;2023-07-31T00:26:18;101981.76;;;15.77;69.05
53635;BME280;39542;-34.932;138.594;2023-07-31T00:26:53;101983.47;;;15.78;69.05
53635;BME280;39542;-34.932;138.594;2023-07-31T00:27:27;101983.39;;;15.78;69.05
53635;BME280;39542;-34.932;138.594;2023-07-31T00:28:01;101984.87;;;15.78;69.04
53635;BME280;39542;-34.932;138.594;2023-07-31T00:28:36;101984.90;;;15.80;69.01
53635;BME280;39542;-34.932;138.594;2023-07-31T00:29:10;101985.27;;;15.79;69.03
53635;BME280;39542;-34.932;138.594;2023-07-31T00:29:44;101989.44;;;15.79;69.05
53635;BME280;39542;-34.932;138.594;2023-07-31T00:30:19;101987.75;;;15.78;69.01
53635;BME280;39542;-34.932;138.594;2023-07-31T00:30:53;101991.72;;;15.80;69.01
53635;BME280;39542;-34.932;138.594;2023-07-31T00:31:28;101994.02;;;15.82;68.95
53635;BME280;39542;-34.932;138.594;2023-07-31T00:32:02;101992.93;;;15.83;68.92
53635;BME280;39542;-34.932;138.594;2023-07-31T00:32:37;101995.90;;;15.83;68.92
53635;BME280;39542;-34.932;138.594;2023-07-31T00:33:11;101995.15;;;15.82;68.92
53635;BME280;39542;-34.932;138.594;2023-07-31T00:33:45;101996.92;;;15.83;68.91
53635;BME280;39542;-34.932;138.594;2023-07-31T00:34:20;101998.86;;;15.83;68.96
53635;BME280;39542;-34.932;138.594;2023-07-31T00:34:54;101998.35;;;15.83;68.91
53635;BME280;39542;-34.932;138.594;2023-07-31T00:35:28;101999.94;;;15.83;68.92
53635;BME280;39542;-34.932;138.594;2023-07-31T00:36:03;101999.80;;;15.83;68.94
53635;BME280;39542;-34.932;138.594;2023-07-31T00:36:37;101999.59;;;15.83;68.95
53635;BME280;39542;-34.932;138.594;2023-07-31T00:37:11;102001.20;;;15.83;68.94
53635;BME280;39542;-34.932;138.594;2023-07-31T00:37:46;102003.07;;;15.85;68.87
53635;BME280;39542;-34.932;138.594;2023-07-31T00:38:20;102004.03;;;15.85;68.90
53635;BME280;39542;-34.932;138.594;2023-07-31T00:38:54;102004.64;;;15.85;68.89
53635;BME280;39542;-34.932;138.594;2023-07-31T00:39:29;102004.16;;;15.85;68.92
53635;BME280;39542;-34.932;138.594;2023-07-31T00:40:03;102005.18;;;15.85;68.91
53635;BME280;39542;-34.932;138.594;2023-07-31T00:40:38;102008.15;;;15.85;68.91
53635;BME280;39542;-34.932;138.594;2023-07-31T00:41:13;102007.24;;;15.84;68.92
53635;BME280;39542;-34.932;138.594;2023-07-31T00:41:48;102008.99;;;15.84;68.94
53635;BME280;39542;-34.932;138.594;2023-07-31T00:42:22;102011.27;;;15.85;68.92
53635;BME280;39542;-34.932;138.594;2023-07-31T00:42:57;102009.77;;;15.86;68.87
53635;BME280;39542;-34.932;138.594;2023-07-31T00:43:31;102012.28;;;15.86;68.88
53635;BME280;39542;-34.932;138.594;2023-07-31T00:44:05;102014.99;;;15.86;68.96
53635;BME280;39542;-34.932;138.594;2023-07-31T00:44:40;102016.86;;;15.87;68.89
53635;BME280;39542;-34.932;138.594;2023-07-31T00:45:14;102015.09;;;15.88;68.86
53635;BME280;39542;-34.932;138.594;2023-07-31T00:45:48;102015.74;;;15.88;68.84
53635;BME280;39542;-34.932;138.594;2023-07-31T00:46:23;102016.17;;;15.88;68.85
53635;BME280;39542;-34.932;138.594;2023-07-31T00:46:57;102018.34;;;15.89;68.87
53635;BME280;39542;-34.932;138.594;2023-07-31T00:47:32;102019.63;;;15.88;68.85
53635;BME280;39542;-34.932;138.594;2023-07-31T00:48:07;102022.57;;;15.89;68.85
53635;BME280;39542;-34.932;138.594;2023-07-31T00:48:41;102021.53;;;15.89;68.86
53635;BME280;39542;-34.932;138.594;2023-07-31T00:49:16;102022.82;;;15.88;68.89
53635;BME280;39542;-34.932;138.594;2023-07-31T00:49:51;102025.64;;;15.88;68.91
53635;BME280;39542;-34.932;138.594;2023-07-31T00:50:26;102027.31;;;15.88;68.88
53635;BME280;39542;-34.932;138.594;2023-07-31T00:51:01;102027.67;;;15.87;68.90
53635;BME280;39542;-34.932;138.594;2023-07-31T00:51:35;102026.23;;;15.87;68.89
53635;BME280;39542;-34.932;138.594;2023-07-31T00:52:11;102025.07;;;15.87;68.93
53635;BME280;39542;-34.932;138.594;2023-07-31T00:52:45;102026.63;;;15.88;68.92
53635;BME280;39542;-34.932;138.594;2023-07-31T00:53:20;102030.19;;;15.88;68.90
53635;BME280;39542;-34.932;138.594;2023-07-31T00:53:54;102030.54;;;15.88;68.90
53635;BME280;39542;-34.932;138.594;2023-07-31T00:54:29;102032.32;;;15.88;68.91
53635;BME280;39542;-34.932;138.594;2023-07-31T00:55:04;102031.09;;;15.88;68.94
53635;BME280;39542;-34.932;138.594;2023-07-31T00:55:38;102035.72;;;15.88;68.91
53635;BME280;39542;-34.932;138.594;2023-07-31T00:56:14;102036.67;;;15.89;68.91
53635;BME280;39542;-34.932;138.594;2023-07-31T00:56:48;102040.51;;;15.89;68.90
53635;BME280;39542;-34.932;138.594;2023-07-31T00:57:25;102040.21;;;15.89;68.87
53635;BME280;39542;-34.932;138.594;2023-07-31T00:57:59;102045.40;;;15.89;68.91
53635;BME280;39542;-34.932;138.594;2023-07-31T00:58:33;102043.91;;;15.89;68.93
53635;BME280;39542;-34.932;138.594;2023-07-31T00:59:07;102042.88;;;15.89;68.93
53635;BME280;39542;-34.932;138.594;2023-07-31T00:59:42;102044.31;;;15.89;68.94
53635;BME280;39542;-34.932;138.594;2023-07-31T01:00:16;102044.35;;;15.89;68.91
53635;BME280;39542;-34.932;138.594;2023-07-31T01:00:51;102044.18;;;15.89;68.97
53635;BME280;39542;-34.932;138.594;2023-07-31T01:01:26;102046.45;;;15.89;68.93
53635;BME280;39542;-34.932;138.594;2023-07-31T01:02:00;102047.35;;;15.88;68.93
53635;BME280;39542;-34.932;138.594;2023-07-31T01:02:34;102045.14;;;15.89;68.90
53635;BME280;39542;-34.932;138.594;2023-07-31T01:03:09;102050.64;;;15.89;68.91
53635;BME280;39542;-34.932;138.594;2023-07-31T01:03:44;102051.26;;;15.89;68.89
53635;BME280;39542;-34.932;138.594;2023-07-31T01:04:18;102054.51;;;15.90;68.89
53635;BME280;39542;-34.932;138.594;2023-07-31T01:04:53;102052.26;;;15.90;68.94
53635;BME280;39542;-34.932;138.594;2023-07-31T01:05:39;102053.58;;;15.90;68.91
53635;BME280;39542;-34.932;138.594;2023-07-31T01:06:22;102054.69;;;15.91;68.89
53635;BME280;39542;-34.932;138.594;2023-07-31T01:07:05;102058.21;;;15.91;68.88
53635;BME280;39542;-34.932;138.594;2023-07-31T01:07:48;102060.93;;;15.92;68.84
53635;BME280;39542;-34.932;138.594;2023-07-31T01:08:29;102059.56;;;15.91;68.87
53635;BME280;39542;-34.932;138.594;2023-07-31T01:09:11;102062.99;;;15.91;68.90
53635;BME280;39542;-34.932;138.594;2023-07-31T01:10:00;102062.67;;;15.92;68.87
53635;BME280;39542;-34.932;138.594;2023-07-31T01:10:42;102064.48;;;15.91;68.88
53635;BME280;39542;-34.932;138.594;2023-07-31T01:11:24;102063.72;;;15.90;68.94
53635;BME280;39542;-34.932;138.594;2023-07-31T01:12:02;102065.94;;;15.90;68.94
53635;BME280;39542;-34.932;138.594;2023-07-31T01:12:39;102066.52;;;15.91;68.93
53635;BME280;39542;-34.932;138.594;2023-07-31T01:13:14;102067.64;;;15.92;68.91
53635;BME280;39542;-34.932;138.594;2023-07-31T01:13:49;102067.64;;;15.92;68.92
53635;BME280;39542;-34.932;138.594;2023-07-31T01:14:23;102068.62;;;15.92;68.93
53635;BME280;39542;-34.932;138.594;2023-07-31T01:15:05;102069.32;;;15.91;68.94
53635;BME280;39542;-34.932;138.594;2023-07-31T01:15:40;102069.07;;;15.90;69.00
53635;BME280;39542;-34.932;138.594;2023-07-31T01:16:14;102070.13;;;15.90;68.98
53635;BME280;39542;-34.932;138.594;2023-07-31T01:16:48;102071.66;;;15.92;69.03
53635;BME280;39542;-34.932;138.594;2023-07-31T01:17:22;102073.02;;;15.93;68.98
53635;BME280;39542;-34.932;138.594;2023-07-31T01:17:57;102072.09;;;15.92;69.00
53635;BME280;39542;-34.932;138.594;2023-07-31T01:18:31;102076.32;;;15.93;68.99
53635;BME280;39542;-34.932;138.594;2023-07-31T01:19:06;102074.46;;;15.93;68.99
53635;BME280;39542;-34.932;138.594;2023-07-31T01:19:41;102076.47;;;15.92;69.04
53635;BME280;39542;-34.932;138.594;2023-07-31T01:20:17;102079.20;;;15.91;69.06
53635;BME280;39542;-34.932;138.594;2023-07-31T01:20:59;102078.43;;;15.90;69.08
53635;BME280;39542;-34.932;138.594;2023-07-31T01:21:53;102079.95;;;15.90;69.10
53635;BME280;39542;-34.932;138.594;2023-07-31T01:22:48;102078.42;;;15.90;69.11
53635;BME280;39542;-34.932;138.594;2023-07-31T01:24:04;102080.71;;;15.93;69.02
53635;BME280;39542;-34.932;138.594;2023-07-31T01:24:53;102079.74;;;15.92;69.09
53635;BME280;39542;-34.932;138.594;2023-07-31T01:25:54;102080.32;;;15.91;69.12
53635;BME280;39542;-34.932;138.594;2023-07-31T01:26:32;102079.63;;;15.94;69.09
53635;BME280;39542;-34.932;138.594;2023-07-31T01:27:11;102080.17;;;15.93;69.08
53635;BME280;39542;-34.932;138.594;2023-07-31T01:27:51;102078.03;;;15.94;69.02
53635;BME280;39542;-34.932;138.594;2023-07-31T01:28:37;102081.71;;;15.95;69.05
53635;BME280;39542;-34.932;138.594;2023-07-31T01:29:23;102080.56;;;15.94;69.09
53635;BME280;39542;-34.932;138.594;2023-07-31T01:30:07;102081.01;;;15.93;69.10
53635;BME280;39542;-34.932;138.594;2023-07-31T01:30:44;102080.32;;;15.92;69.11
53635;BME280;39542;-34.932;138.594;2023-07-31T01:31:24;102077.56;;;15.92;69.15
53635;BME280;39542;-34.932;138.594;2023-07-31T01:32:03;102079.20;;;15.93;69.12
53635;BME280;39542;-34.932;138.594;2023-07-31T01:32:40;102078.16;;;15.93;69.12
53635;BME280;39542;-34.932;138.594;2023-07-31T01:33:17;102079.80;;;15.94;69.11
53635;BME280;39542;-34.932;138.594;2023-07-31T01:33:53;102079.99;;;15.95;69.13
53635;BME280;39542;-34.932;138.594;2023-07-31T01:34:28;102079.93;;;15.95;69.18
53635;BME280;39542;-34.932;138.594;2023-07-31T01:35:03;102080.49;;;15.96;69.17
53635;BME280;39542;-34.932;138.594;2023-07-31T01:35:38;102080.52;;;15.97;69.19
53635;BME280;39542;-34.932;138.594;2023-07-31T01:36:13;102080.30;;;15.99;69.16
53635;BME280;39542;-34.932;138.594;2023-07-31T01:36:47;102078.38;;;15.98;69.21
53635;BME280;39542;-34.932;138.594;2023-07-31T01:37:22;102076.35;;;15.98;69.25
53635;BME280;39542;-34.932;138.594;2023-07-31T01:38:02;102075.81;;;15.98;69.29
53635;BME280;39542;-34.932;138.594;2023-07-31T01:38:36;102077.14;;;15.97;69.33
53635;BME280;39542;-34.932;138.594;2023-07-31T01:39:10;102076.33;;;15.97;69.31
53635;BME280;39542;-34.932;138.594;2023-07-31T01:39:45;102074.59;;;15.98;69.32
53635;BME280;39542;-34.932;138.594;2023-07-31T01:40:19;102075.15;;;15.97;69.35
53635;BME280;39542;-34.932;138.594;2023-07-31T01:40:54;102071.58;;;15.95;69.36
53635;BME280;39542;-34.932;138.594;2023-07-31T01:41:28;102068.12;;;15.95;69.40
53635;BME280;39542;-34.932;138.594;2023-07-31T01:42:02;102072.26;;;15.96;69.44
53635;BME280;39542;-34.932;138.594;2023-07-31T01:42:36;102069.02;;;15.95;69.40
53635;BME280;39542;-34.932;138.594;2023-07-31T01:43:11;102069.06;;;15.96;69.38
53635;BME280;39542;-34.932;138.594;2023-07-31T01:43:45;102066.82;;;15.96;69.40
53635;BME280;39542;-34.932;138.594;2023-07-31T01:44:20;102063.81;;;15.95;69.41
53635;BME280;39542;-34.932;138.594;2023-07-31T01:44:54;102065.04;;;15.96;69.49
53635;BME280;39542;-34.932;138.594;2023-07-31T01:45:28;102063.52;;;15.96;69.53
53635;BME280;39542;-34.932;138.594;2023-07-31T01:46:02;102063.38;;;15.96;69.55
53635;BME280;39542;-34.932;138.594;2023-07-31T01:46:37;102062.39;;;15.96;69.55
53635;BME280;39542;-34.932;138.594;2023-07-31T01:47:11;102063.77;;;15.95;69.55
53635;BME280;39542;-34.932;138.594;2023-07-31T01:47:45;102063.82;;;15.96;69.54
53635;BME280;39542;-34.932;138.594;2023-07-31T01:48:20;102061.46;;;15.95;69.62
53635;BME280;39542;-34.932;138.594;2023-07-31T01:48:54;102062.97;;;15.94;69.62
53635;BME280;39542;-34.932;138.594;2023-07-31T01:49:28;102062.12;;;15.95;69.57
53635;BME280;39542;-34.932;138.594;2023-07-31T01:50:03;102061.29;;;15.96;69.62
53635;BME280;39542;-34.932;138.594;2023-07-31T01:50:37;102059.84;;;15.96;69.58
53635;BME280;39542;-34.932;138.594;2023-07-31T01:51:12;102061.83;;;15.96;69.55
53635;BME280;39542;-34.932;138.594;2023-07-31T01:51:46;102058.04;;;15.95;69.62
53635;BME280;39542;-34.932;138.594;2023-07-31T01:52:21;102058.28;;;15.94;69.68
53635;BME280;39542;-34.932;138.594;2023-07-31T01:52:55;102061.80;;;15.95;69.60
53635;BME280;39542;-34.932;138.594;2023-07-31T01:53:30;102058.56;;;15.96;69.60
53635;BME280;39542;-34.932;138.594;2023-07-31T01:54:05;102057.44;;;15.97;69.61
53635;BME280;39542;-34.932;138.594;2023-07-31T01:54:40;102054.97;;;15.95;69.68
53635;BME280;39542;-34.932;138.594;2023-07-31T01:55:14;102053.20;;;15.95;69.66
53635;BME280;39542;-34.932;138.594;2023-07-31T01:55:49;102056.08;;;15.96;69.67
53635;BME280;39542;-34.932;138.594;2023-07-31T01:56:23;102055.82;;;15.97;69.64
53635;BME280;39542;-34.932;138.594;2023-07-31T01:56:57;102054.84;;;15.98;69.68
53635;BME280;39542;-34.932;138.594;2023-07-31T01:57:31;102053.56;;;15.97;69.66
53635;BME280;39542;-34.932;138.594;2023-07-31T01:58:06;102054.89;;;15.97;69.66
53635;BME280;39542;-34.932;138.594;2023-07-31T01:58:40;102051.21;;;15.97;69.67
53635;BME280;39542;-34.932;138.594;2023-07-31T01:59:14;102053.43;;;15.97;69.61
53635;BME280;39542;-34.932;138.594;2023-07-31T01:59:48;102054.76;;;15.97;69.71
53635;BME280;39542;-34.932;138.594;2023-07-31T02:00:23;102056.11;;;15.96;69.74
53635;BME280;39542;-34.932;138.594;2023-07-31T02:00:57;102053.06;;;15.97;69.67
53635;BME280;39542;-34.932;138.594;2023-07-31T02:01:31;102055.49;;;15.98;69.70
53635;BME280;39542;-34.932;138.594;2023-07-31T02:02:06;102054.44;;;15.99;69.74
53635;BME280;39542;-34.932;138.594;2023-07-31T02:02:40;102055.90;;;15.98;69.67
53635;BME280;39542;-34.932;138.594;2023-07-31T02:03:14;102054.94;;;15.98;69.72
53635;BME280;39542;-34.932;138.594;2023-07-31T02:03:49;102055.89;;;15.97;69.76
53635;BME280;39542;-34.932;138.594;2023-07-31T02:04:24;102054.68;;;15.97;69.77
53635;BME280;39542;-34.932;138.594;2023-07-31T02:04:58;102054.51;;;15.97;69.75
53635;BME280;39542;-34.932;138.594;2023-07-31T02:05:32;102052.72;;;15.98;69.68
53635;BME280;39542;-34.932;138.594;2023-07-31T02:06:06;102056.52;;;15.97;69.74
53635;BME280;39542;-34.932;138.594;2023-07-31T02:06:41;102057.21;;;15.96;69.75
53635;BME280;39542;-34.932;138.594;2023-07-31T02:07:16;102054.26;;;15.96;69.72
53635;BME280;39542;-34.932;138.594;2023-07-31T02:07:50;102054.37;;;15.99;69.66
53635;BME280;39542;-34.932;138.594;2023-07-31T02:08:24;102053.84;;;16.01;69.60
53635;BME280;39542;-34.932;138.594;2023-07-31T02:08:58;102054.06;;;16.02;69.56
53635;BME280;39542;-34.932;138.594;2023-07-31T02:09:33;102055.81;;;16.03;69.53
53635;BME280;39542;-34.932;138.594;2023-07-31T02:10:08;102053.63;;;16.02;69.56
53635;BME280;39542;-34.932;138.594;2023-07-31T02:10:42;102054.22;;;16.01;69.53
53635;BME280;39542;-34.932;138.594;2023-07-31T02:11:17;102052.71;;;16.00;69.52
53635;BME280;39542;-34.932;138.594;2023-07-31T02:11:51;102048.59;;;15.99;69.54
53635;BME280;39542;-34.932;138.594;2023-07-31T02:12:25;102047.25;;;15.99;69.59
53635;BME280;39542;-34.932;138.594;2023-07-31T02:12:59;102047.34;;;15.99;69.58
53635;BME280;39542;-34.932;138.594;2023-07-31T02:13:33;102048.72;;;16.00;69.59
53635;BME280;39542;-34.932;138.594;2023-07-31T02:14:08;102048.85;;;16.00;69.59
53635;BME280;39542;-34.932;138.594;2023-07-31T02:14:42;102048.43;;;15.99;69.57
53635;BME280;39542;-34.932;138.594;2023-07-31T02:15:17;102047.71;;;15.98;69.68
53635;BME280;39542;-34.932;138.594;2023-07-31T02:15:51;102048.86;;;15.97;69.71
53635;BME280;39542;-34.932;138.594;2023-07-31T02:16:25;102046.05;;;15.96;69.69
53635;BME280;39542;-34.932;138.594;2023-07-31T02:17:00;102045.98;;;15.97;69.66
53635;BME280;39542;-34.932;138.594;2023-07-31T02:17:34;102048.57;;;15.97;69.67
53635;BME280;39542;-34.932;138.594;2023-07-31T02:18:08;102049.69;;;15.98;69.62
53635;BME280;39542;-34.932;138.594;2023-07-31T02:18:42;102047.52;;;15.99;69.60
53635;BME280;39542;-34.932;138.594;2023-07-31T02:19:17;102047.89;;;15.98;69.59
53635;BME280;39542;-34.932;138.594;2023-07-31T02:19:51;102048.50;;;15.99;69.57
53635;BME280;39542;-34.932;138.594;2023-07-31T02:20:25;102051.15;;;15.99;69.63
53635;BME280;39542;-34.932;138.594;2023-07-31T02:21:00;102050.87;;;15.97;69.63
53635;BME280;39542;-34.932;138.594;2023-07-31T02:21:34;102050.48;;;15.97;69.63
53635;BME280;39542;-34.932;138.594;2023-07-31T02:22:09;102049.28;;;15.97;69.67
53635;BME280;39542;-34.932;138.594;2023-07-31T02:22:43;102048.47;;;15.97;69.62
53635;BME280;39542;-34.932;138.594;2023-07-31T02:23:17;102047.31;;;15.98;69.64
53635;BME280;39542;-34.932;138.594;2023-07-31T02:23:51;102048.78;;;15.98;69.57
53635;BME280;39542;-34.932;138.594;2023-07-31T02:24:25;102050.51;;;15.98;69.61
53635;BME280;39542;-34.932;138.594;2023-07-31T02:25:00;102048.47;;;15.98;69.57
53635;BME280;39542;-34.932;138.594;2023-07-31T02:25:34;102048.83;;;15.97;69.60
53635;BME280;39542;-34.932;138.594;2023-07-31T02:26:08;102048.28;;;15.97;69.59
53635;BME280;39542;-34.932;138.594;2023-07-31T02:26:43;102045.48;;;15.98;69.58
53635;BME280;39542;-34.932;138.594;2023-07-31T02:27:17;102044.86;;;15.98;69.51
53635;BME280;39542;-34.932;138.594;2023-07-31T02:27:51;102044.12;;;15.98;69.52
53635;BME280;39542;-34.932;138.594;2023-07-31T02:28:26;102040.10;;;15.99;69.50
53635;BME280;39542;-34.932;138.594;2023-07-31T02:29:00;102040.32;;;15.99;69.46
53635;BME280;39542;-34.932;138.594;2023-07-31T02:29:34;102040.49;;;15.98;69.47
53635;BME280;39542;-34.932;138.594;2023-07-31T02:30:09;102036.90;;;15.98;69.45
53635;BME280;39542;-34.932;138.594;2023-07-31T02:30:46;102035.47;;;15.97;69.46
53635;BME280;39542;-34.932;138.594;2023-07-31T02:31:20;102037.51;;;15.99;69.46
53635;BME280;39542;-34.932;138.594;2023-07-31T02:31:55;102035.79;;;15.97;69.49
53635;BME280;39542;-34.932;138.594;2023-07-31T02:32:29;102032.74;;;15.97;69.49
53635;BME280;39542;-34.932;138.594;2023-07-31T02:33:04;102033.16;;;15.96;69.52
53635;BME280;39542;-34.932;138.594;2023-07-31T02:33:38;102031.79;;;15.96;69.50
53635;BME280;39542;-34.932;138.594;2023-07-31T02:34:12;102032.57;;;15.96;69.55
53635;BME280;39542;-34.932;138.594;2023-07-31T02:34:46;102031.62;;;15.95;69.58
53635;BME280;39542;-34.932;138.594;2023-07-31T02:35:21;102030.38;;;15.95;69.53
53635;BME280;39542;-34.932;138.594;2023-07-31T02:35:55;102031.41;;;15.98;69.47
53635;BME280;39542;-34.932;138.594;2023-07-31T02:36:29;102029.76;;;15.97;69.51
53635;BME280;39542;-34.932;138.594;2023-07-31T02:37:04;102029.79;;;15.96;69.53
53635;BME280;39542;-34.932;138.594;2023-07-31T02:37:39;102029.18;;;15.96;69.53
53635;BME280;39542;-34.932;138.594;2023-07-31T02:38:13;102029.19;;;15.96;69.49
53635;BME280;39542;-34.932;138.594;2023-07-31T02:38:48;102026.31;;;15.98;69.44
53635;BME280;39542;-34.932;138.594;2023-07-31T02:39:22;102030.16;;;15.99;69.42
53635;BME280;39542;-34.932;138.594;2023-07-31T02:39:57;102028.00;;;15.99;69.44
53635;BME280;39542;-34.932;138.594;2023-07-31T02:40:31;102031.37;;;15.98;69.39
53635;BME280;39542;-34.932;138.594;2023-07-31T02:41:05;102027.33;;;15.98;69.38
53635;BME280;39542;-34.932;138.594;2023-07-31T02:41:40;102027.82;;;15.99;69.37
53635;BME280;39542;-34.932;138.594;2023-07-31T02:42:14;102025.02;;;15.98;69.35
53635;BME280;39542;-34.932;138.594;2023-07-31T02:42:49;102022.25;;;15.97;69.36
53635;BME280;39542;-34.932;138.594;2023-07-31T02:43:23;102022.80;;;15.99;69.34
53635;BME280;39542;-34.932;138.594;2023-07-31T02:43:57;102021.82;;;16.00;69.32
53635;BME280;39542;-34.932;138.594;2023-07-31T02:44:32;102019.55;;;16.00;69.28
53635;BME280;39542;-34.932;138.594;2023-07-31T02:45:07;102020.15;;;16.01;69.24
53635;BME280;39542;-34.932;138.594;2023-07-31T02:45:42;102019.52;;;16.00;69.27
53635;BME280;39542;-34.932;138.594;2023-07-31T02:46:16;102017.23;;;16.00;69.25
53635;BME280;39542;-34.932;138.594;2023-07-31T02:46:50;102017.44;;;16.00;69.20
53635;BME280;39542;-34.932;138.594;2023-07-31T02:47:25;102016.49;;;15.99;69.22
53635;BME280;39542;-34.932;138.594;2023-07-31T02:47:59;102015.01;;;15.99;69.28
53635;BME280;39542;-34.932;138.594;2023-07-31T02:48:34;102018.86;;;15.99;69.26
53635;BME280;39542;-34.932;138.594;2023-07-31T02:49:08;102014.52;;;16.00;69.23
53635;BME280;39542;-34.932;138.594;2023-07-31T02:49:42;102016.13;;;16.01;69.22
53635;BME280;39542;-34.932;138.594;2023-07-31T02:50:17;102015.97;;;16.01;69.19
53635;BME280;39542;-34.932;138.594;2023-07-31T02:50:51;102016.21;;;16.02;69.20
53635;BME280;39542;-34.932;138.594;2023-07-31T02:51:25;102013.66;;;16.00;69.24
53635;BME280;39542;-34.932;138.594;2023-07-31T02:51:59;102014.78;;;15.99;69.28
53635;BME280;39542;-34.932;138.594;2023-07-31T02:52:34;102018.74;;;15.98;69.31
53635;BME280;39542;-34.932;138.594;2023-07-31T02:53:08;102015.57;;;15.99;69.28
53635;BME280;39542;-34.932;138.594;2023-07-31T02:53:42;102017.11;;;16.00;69.24
53635;BME280;39542;-34.932;138.594;2023-07-31T02:54:17;102018.32;;;16.00;69.25
53635;BME280;39542;-34.932;138.594;2023-07-31T02:54:51;102021.01;;;16.01;69.22
53635;BME280;39542;-34.932;138.594;2023-07-31T02:55:25;102016.33;;;16.00;69.23
53635;BME280;39542;-34.932;138.594;2023-07-31T02:56:00;102017.72;;;15.99;69.26
53635;BME280;39542;-34.932;138.594;2023-07-31T02:56:34;102015.83;;;16.01;69.22
53635;BME280;39542;-34.932;138.594;2023-07-31T02:57:08;102014.86;;;16.00;69.19
53635;BME280;39542;-34.932;138.594;2023-07-31T02:57:43;102015.83;;;16.00;69.22
53635;BME280;39542;-34.932;138.594;2023-07-31T02:58:18;102012.30;;;15.99;69.23